Time;durP1;ratioP1;P1;durP2;ratioP2;P2;SDS_P1;SDS_P2;PMS_P1;PMS_P2;Temp;Humidity;BMP_temperature;BMP_pressure;BME280_temperature;BME280_humidity;BME280_pressure;Samples;Min_cycle;Max_cycle;Signal;HPM_P1;HPM_P2
2021/07/03 00:01:49;;;;;;;4.93;1.70;;;;;;;22.55;47.97;98359.03;5028229;28;20037;-61
2021/07/03 00:04:14;;;;;;;3.70;1.50;;;;;;;22.48;50.05;98365.50;5033031;28;20037;-60
2021/07/03 00:06:40;;;;;;;4.40;1.60;;;;;;;22.46;51.50;98365.72;5021812;28;20045;-61
2021/07/03 00:09:05;;;;;;;5.75;1.80;;;;;;;22.38;52.29;98352.78;5012419;28;20091;-60
2021/07/03 00:11:30;;;;;;;4.13;1.77;;;;;;;22.27;52.37;98365.78;5016419;28;20538;-61
2021/07/03 00:13:56;;;;;;;4.93;1.60;;;;;;;22.34;52.57;98360.41;5020646;28;20067;-61
2021/07/03 00:16:21;;;;;;;5.18;1.92;;;;;;;22.12;53.00;98319.53;5036346;28;20570;-61
2021/07/03 00:18:47;;;;;;;3.75;1.60;;;;;;;22.35;49.62;98366.50;5020415;28;20068;-61
2021/07/03 00:21:12;;;;;;;3.90;1.73;;;;;;;22.31;49.05;98362.69;5038562;28;20026;-61
2021/07/03 00:23:38;;;;;;;6.82;2.10;;;;;;;22.23;49.99;98363.78;5018792;28;20112;-61
2021/07/03 00:26:03;;;;;;;4.53;1.90;;;;;;;22.13;51.08;98347.66;5021586;28;20029;-61
2021/07/03 00:28:28;;;;;;;3.85;1.60;;;;;;;22.35;48.43;98354.06;5006285;28;20128;-61
2021/07/03 00:30:54;;;;;;;4.00;1.65;;;;;;;22.26;47.59;98355.41;5032178;28;20041;-61
2021/07/03 00:33:19;;;;;;;5.55;1.60;;;;;;;22.05;48.16;98332.88;5016249;28;20029;-61
2021/07/03 00:35:45;;;;;;;3.70;1.60;;;;;;;22.25;48.59;98374.94;5014664;28;20468;-61
2021/07/03 00:38:10;;;;;;;4.95;1.85;;;;;;;22.24;49.01;98370.69;5015401;28;20082;-61
2021/07/03 00:40:36;;;;;;;4.35;1.75;;;;;;;22.25;49.40;98359.06;5009999;28;20618;-61
2021/07/03 00:43:01;;;;;;;4.75;1.60;;;;;;;22.49;49.17;98381.16;5018784;28;20372;-62
2021/07/03 00:45:26;;;;;;;4.70;1.50;;;;;;;22.55;49.51;98380.22;5023142;28;20029;-61
2021/07/03 00:47:52;;;;;;;4.05;1.75;;;;;;;22.33;49.65;98340.22;5019535;28;20042;-61
2021/07/03 00:50:18;;;;;;;4.85;1.70;;;;;;;22.54;50.29;98381.25;5018146;28;20029;-61
2021/07/03 00:52:44;;;;;;;4.20;1.60;;;;;;;22.26;50.40;98358.88;5034075;28;20067;-61
2021/07/03 00:55:10;;;;;;;4.32;1.80;;;;;;;22.42;50.24;98373.31;5035823;28;20097;-61
2021/07/03 00:57:38;;;;;;;5.70;1.80;;;;;;;22.56;50.28;98386.34;5012101;28;20041;-61
2021/07/03 01:00:05;;;;;;;4.93;1.80;;;;;;;22.42;49.52;98383.91;5021370;28;20108;-61
2021/07/03 01:02:30;;;;;;;3.92;1.88;;;;;;;22.40;49.60;98380.66;5020384;28;20033;-61
2021/07/03 01:04:56;;;;;;;3.72;1.60;;;;;;;22.48;49.60;98378.72;5016959;28;20026;-61
2021/07/03 01:07:21;;;;;;;6.80;2.00;;;;;;;22.44;49.84;98373.88;5023830;28;20025;-61
2021/07/03 01:09:47;;;;;;;4.15;1.85;;;;;;;22.49;49.49;98391.75;5017259;28;20029;-61
2021/07/03 01:12:12;;;;;;;5.60;1.85;;;;;;;22.45;49.84;98383.44;5011892;28;20025;-61
2021/07/03 01:14:43;;;;;;;5.03;1.73;;;;;;;22.58;49.37;98393.03;5035105;28;20043;-61
2021/07/03 01:17:09;;;;;;;4.45;1.98;;;;;;;22.55;49.78;98395.34;5016191;28;20041;-61
2021/07/03 01:19:34;;;;;;;4.78;1.60;;;;;;;22.28;50.57;98382.47;5021810;28;20147;-61
2021/07/03 01:21:59;;;;;;;4.82;2.00;;;;;;;22.18;49.66;98361.81;5033412;28;20033;-61
2021/07/03 01:24:25;;;;;;;4.95;1.90;;;;;;;22.20;49.71;98370.34;5037005;28;20056;-61
2021/07/03 01:26:55;;;;;;;4.43;1.60;;;;;;;22.34;49.77;98389.53;5031396;28;20042;-61
2021/07/03 01:29:23;;;;;;;5.85;1.70;;;;;;;22.41;49.23;98386.78;5017168;28;20021;-61
2021/07/03 01:31:51;;;;;;;4.88;1.70;;;;;;;22.17;49.70;98352.25;5032623;28;20037;-61
2021/07/03 01:34:19;;;;;;;3.80;1.70;;;;;;;22.34;50.17;98386.88;5003883;28;20033;-61
2021/07/03 01:36:44;;;;;;;4.47;1.67;;;;;;;22.14;50.23;98363.31;5016164;28;20480;-61
2021/07/03 01:39:10;;;;;;;4.55;1.77;;;;;;;22.30;50.45;98393.66;5019075;28;20055;-61
2021/07/03 01:41:36;;;;;;;3.83;1.60;;;;;;;22.30;50.59;98388.34;5030439;28;20104;-61
2021/07/03 01:44:02;;;;;;;4.53;1.90;;;;;;;22.24;50.70;98395.34;5017413;28;20064;-61
2021/07/03 01:46:28;;;;;;;4.45;1.75;;;;;;;21.89;50.51;98347.56;5014990;28;20069;-61
2021/07/03 01:48:54;;;;;;;4.03;1.50;;;;;;;22.19;50.44;98383.81;5015113;28;20120;-61
2021/07/03 01:51:19;;;;;;;4.85;2.10;;;;;;;22.39;49.73;98394.94;5005780;28;20799;-61
2021/07/03 01:53:44;;;;;;;4.47;1.70;;;;;;;22.32;49.59;98375.69;5018511;28;20030;-61
2021/07/03 01:56:10;;;;;;;5.70;1.80;;;;;;;22.24;49.81;98378.63;5018215;28;20032;-61
2021/07/03 01:58:36;;;;;;;4.57;2.08;;;;;;;22.29;49.82;98385.94;5018918;28;20041;-61
2021/07/03 02:01:03;;;;;;;4.13;1.70;;;;;;;22.26;49.75;98395.94;5018708;28;20534;-62
2021/07/03 02:03:28;;;;;;;5.72;1.70;;;;;;;22.17;49.87;98391.97;5019223;28;20484;-61
2021/07/03 02:05:54;;;;;;;3.65;1.70;;;;;;;22.12;50.50;98388.38;5018344;28;20033;-61
2021/07/03 02:08:20;;;;;;;4.50;1.70;;;;;;;22.05;50.38;98373.41;5034694;28;20029;-61
2021/07/03 02:10:45;;;;;;;4.15;1.73;;;;;;;22.18;49.80;98392.78;5034372;28;20040;-61
2021/07/03 02:13:10;;;;;;;4.20;1.73;;;;;;;22.13;49.30;98384.72;5018527;28;20400;-61
2021/07/03 02:15:36;;;;;;;4.10;1.80;;;;;;;21.87;49.80;98366.31;5017357;28;20041;-61
2021/07/03 02:18:01;;;;;;;5.03;1.80;;;;;;;22.00;49.90;98377.75;5020255;28;20095;-61
2021/07/03 02:20:27;;;;;;;4.43;1.88;;;;;;;22.09;50.01;98389.66;5016041;28;20491;-62
2021/07/03 02:22:53;;;;;;;3.97;1.70;;;;;;;22.15;49.35;98393.22;5035296;28;20036;-61
2021/07/03 02:25:19;;;;;;;3.80;1.50;;;;;;;21.87;49.79;98347.78;4999077;28;20061;-61
2021/07/03 02:27:44;;;;;;;4.63;1.58;;;;;;;21.96;49.92;98381.88;5016693;28;20045;-61
2021/07/03 02:30:13;;;;;;;4.25;1.70;;;;;;;21.89;50.24;98384.63;5021696;28;20032;-61
2021/07/03 02:32:39;;;;;;;5.18;1.73;;;;;;;21.62;50.88;98362.97;5021600;28;20142;-61
2021/07/03 02:35:05;;;;;;;4.35;1.73;;;;;;;21.79;49.64;98401.00;5018435;28;20033;-61
2021/07/03 02:37:31;;;;;;;4.15;1.55;;;;;;;21.73;51.22;98406.41;5024918;28;20080;-62
2021/07/03 02:39:56;;;;;;;4.13;1.63;;;;;;;21.38;51.11;98362.81;5033390;28;20030;-61
2021/07/03 02:42:21;;;;;;;4.00;1.67;;;;;;;21.47;52.25;98401.19;5037844;28;20626;-61
2021/07/03 02:44:47;;;;;;;6.10;1.73;;;;;;;21.10;54.40;98358.00;5016087;28;20042;-61
2021/07/03 02:47:12;;;;;;;4.45;1.80;;;;;;;21.18;55.14;98400.03;5034140;28;20159;-61
2021/07/03 02:49:38;;;;;;;4.38;1.70;;;;;;;21.01;53.66;98372.53;5017075;28;20056;-61
2021/07/03 02:52:04;;;;;;;3.45;1.50;;;;;;;21.11;53.72;98392.16;5018597;28;20037;-61
2021/07/03 02:54:29;;;;;;;4.22;1.90;;;;;;;21.25;53.71;98406.06;5031606;28;20037;-61
2021/07/03 02:56:57;;;;;;;4.32;2.05;;;;;;;21.31;52.60;98417.59;5017962;28;20448;-61
2021/07/03 02:59:24;;;;;;;4.57;1.80;;;;;;;21.04;51.83;98388.75;5039115;28;20468;-61
2021/07/03 03:01:50;;;;;;;4.53;1.85;;;;;;;21.25;52.17;98415.84;5022402;28;20044;-61
2021/07/03 03:04:15;;;;;;;4.35;1.75;;;;;;;21.26;53.03;98412.94;5024430;28;20025;-60
2021/07/03 03:06:40;;;;;;;4.97;1.70;;;;;;;21.09;53.68;98381.00;5009929;28;20037;-61
2021/07/03 03:09:06;;;;;;;4.55;1.70;;;;;;;21.37;53.70;98418.56;5021441;28;20086;-61
2021/07/03 03:11:31;;;;;;;4.63;1.50;;;;;;;21.32;53.99;98416.59;5040249;28;20113;-61
2021/07/03 03:13:57;;;;;;;4.43;1.75;;;;;;;21.39;54.04;98416.50;5019255;28;20041;-61
2021/07/03 03:16:24;;;;;;;4.43;1.70;;;;;;;21.33;53.40;98406.81;5025485;28;20041;-61
2021/07/03 03:18:50;;;;;;;3.70;1.65;;;;;;;21.43;53.41;98413.19;5035650;28;20025;-62
2021/07/03 03:21:15;;;;;;;3.90;1.67;;;;;;;21.45;52.74;98413.03;5037999;28;20041;-61
2021/07/03 03:23:40;;;;;;;4.30;1.65;;;;;;;21.26;52.55;98375.94;5015188;28;20029;-61
2021/07/03 03:26:06;;;;;;;4.72;1.50;;;;;;;21.45;53.28;98403.25;5021834;28;20035;-61
2021/07/03 03:28:31;;;;;;;4.05;1.67;;;;;;;21.38;52.89;98407.75;5006620;28;20037;-61
2021/07/03 03:30:56;;;;;;;4.38;1.60;;;;;;;21.43;52.30;98409.72;5019125;28;20030;-60
2021/07/03 03:33:22;;;;;;;4.43;1.88;;;;;;;21.32;52.23;98392.78;5038308;28;20029;-61
2021/07/03 03:35:47;;;;;;;4.00;1.80;;;;;;;21.38;51.78;98394.53;5021371;28;20044;-61
2021/07/03 03:38:13;;;;;;;4.95;1.83;;;;;;;21.40;52.37;98408.34;5018366;28;20495;-61
2021/07/03 03:40:39;;;;;;;4.00;1.70;;;;;;;21.47;51.52;98413.59;5019407;28;20758;-61
2021/07/03 03:43:05;;;;;;;4.82;1.75;;;;;;;21.53;51.12;98423.28;5023502;28;20416;-61
2021/07/03 03:45:30;;;;;;;3.47;1.55;;;;;;;21.51;50.76;98430.66;5023923;28;20034;-61
2021/07/03 03:47:56;;;;;;;3.72;1.67;;;;;;;21.30;51.33;98393.00;5035023;28;20033;-61
2021/07/03 03:50:21;;;;;;;5.35;1.70;;;;;;;21.58;51.75;98434.03;5035879;28;20025;-61
2021/07/03 03:52:46;;;;;;;4.15;1.70;;;;;;;21.61;52.26;98440.69;5021771;28;20038;-61
2021/07/03 03:55:12;;;;;;;4.93;1.85;;;;;;;21.65;52.21;98439.25;5024468;28;20036;-61
2021/07/03 03:57:37;;;;;;;6.90;1.80;;;;;;;21.58;52.29;98435.88;5018882;28;20056;-61
2021/07/03 04:00:06;;;;;;;4.15;1.60;;;;;;;21.36;52.38;98403.72;5020550;28;20029;-61
2021/07/03 04:02:31;;;;;;;4.15;1.42;;;;;;;21.56;52.68;98433.44;5018177;28;20088;-61
2021/07/03 04:04:57;;;;;;;4.07;1.73;;;;;;;21.61;52.48;98446.81;5011872;28;20383;-61
2021/07/03 04:07:23;;;;;;;4.60;1.90;;;;;;;21.34;52.49;98403.13;5024198;28;20025;-61
2021/07/03 04:09:48;;;;;;;4.35;1.60;;;;;;;21.54;52.70;98442.59;5006914;28;20060;-61
2021/07/03 04:12:14;;;;;;;4.10;1.80;;;;;;;21.33;52.64;98399.66;5010934;28;20400;-61
2021/07/03 04:14:40;;;;;;;4.53;1.80;;;;;;;21.53;52.68;98441.00;5015652;28;20485;-61
2021/07/03 04:17:06;;;;;;;5.88;1.73;;;;;;;21.43;52.56;98407.91;5021040;28;20029;-61
2021/07/03 04:19:31;;;;;;;5.30;2.05;;;;;;;21.56;52.53;98438.72;5020757;28;20116;-61
2021/07/03 04:21:57;;;;;;;5.80;1.90;;;;;;;21.61;52.22;98457.41;5026720;28;20083;-61
2021/07/03 04:24:23;;;;;;;5.78;1.98;;;;;;;21.53;52.90;98459.53;5034376;28;20021;-62
2021/07/03 04:26:48;;;;;;;4.45;2.00;;;;;;;21.43;53.38;98458.16;5017034;28;20026;-62
2021/07/03 04:29:14;;;;;;;5.10;1.90;;;;;;;21.49;53.06;98467.09;5034633;28;20037;-61
2021/07/03 04:31:39;;;;;;;4.38;2.00;;;;;;;21.35;53.38;98458.44;5017866;28;20037;-61
2021/07/03 04:34:05;;;;;;;4.07;2.00;;;;;;;21.48;52.97;98446.94;4999843;28;20130;-61
2021/07/03 04:36:30;;;;;;;4.25;2.10;;;;;;;21.52;52.98;98456.09;5023576;28;20041;-61
2021/07/03 04:38:56;;;;;;;5.47;2.35;;;;;;;21.50;52.30;98463.41;5017544;28;20052;-61
2021/07/03 04:41:21;;;;;;;6.97;2.38;;;;;;;21.67;51.63;98456.50;5032696;28;20052;-62
2021/07/03 04:43:47;;;;;;;4.60;2.10;;;;;;;21.72;51.64;98468.28;5021584;28;20029;-61
2021/07/03 04:46:12;;;;;;;7.10;2.00;;;;;;;21.82;51.33;98463.28;5031843;28;20515;-61
2021/07/03 04:48:38;;;;;;;4.40;2.00;;;;;;;21.67;52.02;98435.34;5014473;28;20131;-61
2021/07/03 04:51:03;;;;;;;4.45;1.98;;;;;;;21.87;51.68;98474.81;5038067;28;20037;-61
2021/07/03 04:53:29;;;;;;;4.63;1.95;;;;;;;21.79;51.63;98476.94;5028349;28;20045;-61
2021/07/03 04:55:54;;;;;;;4.88;1.90;;;;;;;21.89;51.53;98482.53;5015244;28;20490;-61
2021/07/03 04:58:19;;;;;;;3.85;1.70;;;;;;;21.87;52.44;98484.59;5017756;28;20033;-62
2021/07/03 05:00:45;;;;;;;4.80;1.60;;;;;;;21.73;51.96;98485.78;5026822;28;20041;-61
2021/07/03 05:03:10;;;;;;;5.20;1.50;;;;;;;21.81;51.69;98480.19;5038197;28;20610;-61
2021/07/03 05:05:36;;;;;;;4.05;1.80;;;;;;;21.89;51.29;98488.63;5008229;28;20045;-61
2021/07/03 05:08:01;;;;;;;5.65;1.60;;;;;;;21.97;51.55;98492.00;5024823;28;20115;-62
2021/07/03 05:10:27;;;;;;;3.70;1.70;;;;;;;21.97;51.73;98489.38;5039711;28;20068;-62
2021/07/03 05:12:53;;;;;;;6.13;1.80;;;;;;;21.96;51.58;98450.69;5033369;28;20116;-62
2021/07/03 05:15:18;;;;;;;4.45;1.83;;;;;;;22.19;51.88;98476.47;5020781;28;20179;-61
2021/07/03 05:17:44;;;;;;;3.90;1.70;;;;;;;22.29;51.45;98484.75;5018021;28;20047;-61
2021/07/03 05:20:10;;;;;;;5.03;1.90;;;;;;;22.40;51.10;98477.88;5020413;28;20538;-61
2021/07/03 05:22:36;;;;;;;3.78;1.90;;;;;;;22.58;51.05;98479.66;5009732;28;20419;-65
2021/07/03 05:25:01;;;;;;;6.32;1.70;;;;;;;22.56;51.34;98477.25;5017801;28;20041;-64
2021/07/03 05:27:27;;;;;;;4.85;1.75;;;;;;;22.49;51.95;98479.19;5033506;28;20033;-64
2021/07/03 05:29:52;;;;;;;4.20;1.80;;;;;;;22.53;51.25;98482.97;5019707;28;20033;-65
2021/07/03 05:32:17;;;;;;;4.00;1.55;;;;;;;22.63;51.32;98488.56;5015467;28;20137;-65
2021/07/03 05:34:43;;;;;;;4.80;1.65;;;;;;;22.54;52.71;98489.88;5018413;28;20044;-64
2021/07/03 05:37:08;;;;;;;3.95;1.70;;;;;;;22.34;51.41;98476.09;5019512;28;20037;-65
2021/07/03 05:39:34;;;;;;;4.90;1.90;;;;;;;21.96;51.37;98475.34;5019093;28;20032;-64
2021/07/03 05:42:00;;;;;;;4.18;1.83;;;;;;;22.00;51.67;98491.59;5023034;28;20036;-64
2021/07/03 05:44:25;;;;;;;4.60;1.67;;;;;;;21.81;51.98;98459.84;5031773;28;20030;-64
2021/07/03 05:46:51;;;;;;;4.10;1.70;;;;;;;22.03;51.63;98491.94;5013870;28;20067;-65
2021/07/03 05:49:17;;;;;;;4.18;1.70;;;;;;;21.88;52.89;98492.28;5016293;28;20382;-65
2021/07/03 05:51:43;;;;;;;4.10;1.60;;;;;;;21.82;52.59;98489.75;5013108;28;20495;-64
2021/07/03 05:54:08;;;;;;;5.22;1.80;;;;;;;21.63;53.25;98449.22;5018759;28;20499;-65
2021/07/03 05:56:34;;;;;;;4.30;1.77;;;;;;;21.80;53.00;98495.25;5027447;28;20100;-64
2021/07/03 05:59:01;;;;;;;5.30;1.90;;;;;;;21.97;51.33;98484.06;5010178;28;20030;-64
2021/07/03 06:01:27;;;;;;;7.40;1.70;;;;;;;21.89;50.60;98472.75;5017291;28;20029;-64
2021/07/03 06:03:52;;;;;;;3.67;1.50;;;;;;;21.99;50.55;98501.34;5024420;28;20040;-64
2021/07/03 06:06:17;;;;;;;3.63;1.50;;;;;;;22.13;50.84;98501.22;5019729;28;20088;-64
2021/07/03 06:08:43;;;;;;;6.07;1.80;;;;;;;22.11;50.09;98504.06;5030666;28;20134;-64
2021/07/03 06:11:08;;;;;;;4.72;1.77;;;;;;;22.03;50.36;98517.59;5020459;28;20045;-64
2021/07/03 06:13:35;;;;;;;4.30;1.75;;;;;;;21.92;50.41;98510.41;5034384;28;20030;-65
2021/07/03 06:16:00;;;;;;;5.57;1.88;;;;;;;21.84;50.46;98501.72;5021522;28;20397;-63
2021/07/03 06:18:26;;;;;;;3.97;1.63;;;;;;;21.89;49.95;98501.06;5015730;28;20151;-64
2021/07/03 06:20:52;;;;;;;5.32;1.70;;;;;;;22.04;50.84;98504.13;5020946;28;20033;-64
2021/07/03 06:23:17;;;;;;;4.10;1.92;;;;;;;21.92;51.50;98502.44;5019887;28;20461;-64
2021/07/03 06:25:43;;;;;;;4.40;1.65;;;;;;;21.65;51.11;98482.38;5018323;28;20032;-63
2021/07/03 06:28:08;;;;;;;3.78;1.60;;;;;;;21.80;51.22;98476.72;5020795;28;20044;-64
2021/07/03 06:30:34;;;;;;;4.30;1.80;;;;;;;22.12;50.93;98518.09;5015199;28;20021;-63
2021/07/03 06:33:00;;;;;;;4.50;1.67;;;;;;;22.23;49.74;98520.00;5008967;28;20033;-63
2021/07/03 06:35:25;;;;;;;5.68;1.90;;;;;;;22.22;49.64;98513.13;5036728;28;20124;-63
2021/07/03 06:37:50;;;;;;;5.03;1.88;;;;;;;22.15;47.32;98509.72;5031408;28;20034;-64
2021/07/03 06:40:16;;;;;;;4.10;1.80;;;;;;;21.91;47.93;98485.78;5020395;28;20060;-64
2021/07/03 06:42:41;;;;;;;4.00;1.70;;;;;;;22.15;47.72;98509.72;5035959;28;20053;-63
2021/07/03 06:45:07;;;;;;;4.63;2.08;;;;;;;22.06;47.83;98517.97;5015568;28;20102;-62
2021/07/03 06:47:32;;;;;;;4.50;1.90;;;;;;;22.02;48.92;98523.94;5024625;28;20030;-64
2021/07/03 06:49:58;;;;;;;4.72;1.70;;;;;;;22.00;49.52;98523.34;5019461;28;20039;-63
2021/07/03 06:52:23;;;;;;;4.03;1.77;;;;;;;22.00;50.29;98532.09;5018460;28;20052;-64
2021/07/03 06:54:49;;;;;;;4.53;2.00;;;;;;;21.93;51.55;98510.19;5016875;28;20053;-63
2021/07/03 06:57:15;;;;;;;4.90;1.98;;;;;;;22.02;50.49;98502.75;5018531;28;20408;-64
2021/07/03 06:59:40;;;;;;;4.22;1.90;;;;;;;22.02;49.25;98508.06;5013451;28;20578;-63
2021/07/03 07:02:05;;;;;;;5.60;2.10;;;;;;;21.84;50.19;98482.38;5036449;28;20040;-64
2021/07/03 07:04:31;;;;;;;4.25;1.90;;;;;;;22.05;50.81;98512.88;5026349;28;20095;-64
2021/07/03 07:06:57;;;;;;;4.95;1.75;;;;;;;21.81;51.86;98472.25;5020829;28;20033;-64
2021/07/03 07:09:24;;;;;;;5.45;2.55;;;;;;;22.11;51.48;98519.97;5030049;28;20160;-63
2021/07/03 07:11:51;;;;;;;5.75;2.17;;;;;;;22.26;51.09;98514.31;5020629;28;20038;-64
2021/07/03 07:14:16;;;;;;;4.75;2.05;;;;;;;22.35;49.76;98499.72;5038920;28;20063;-63
2021/07/03 07:16:41;;;;;;;4.93;1.80;;;;;;;22.51;48.39;98498.31;5039506;28;20116;-63
2021/07/03 07:19:08;;;;;;;5.38;2.40;;;;;;;22.48;50.16;98500.59;5033607;28;20362;-63
2021/07/03 07:21:33;;;;;;;10.63;4.97;;;;;;;22.59;49.81;98492.66;5019294;28;20052;-63
2021/07/03 07:23:59;;;;;;;6.65;2.35;;;;;;;22.55;48.95;98493.38;5024048;28;20033;-63
2021/07/03 07:26:25;;;;;;;5.18;2.30;;;;;;;22.78;48.53;98504.03;5019399;28;20057;-64
2021/07/03 07:28:51;;;;;;;8.10;3.28;;;;;;;22.72;48.52;98499.63;5023348;28;20034;-63
2021/07/03 07:31:17;;;;;;;6.45;3.85;;;;;;;22.81;49.10;98510.72;5023468;28;20025;-64
2021/07/03 07:33:43;;;;;;;4.38;2.10;;;;;;;22.90;46.90;98511.19;5021082;28;20108;-64
2021/07/03 07:36:09;;;;;;;5.38;1.90;;;;;;;22.68;46.68;98448.13;5039221;28;20105;-64
2021/07/03 07:38:34;;;;;;;5.72;2.20;;;;;;;23.13;46.41;98516.59;5035534;28;20033;-63
2021/07/03 07:41:00;;;;;;;3.80;1.70;;;;;;;23.10;47.77;98510.94;5017676;28;20033;-63
2021/07/03 07:43:25;;;;;;;4.43;1.90;;;;;;;23.12;49.77;98519.47;5018967;28;20026;-63
2021/07/03 07:45:52;;;;;;;4.85;2.00;;;;;;;23.07;50.50;98511.38;5025734;28;20490;-64
2021/07/03 07:48:18;;;;;;;4.50;1.80;;;;;;;22.91;50.96;98475.69;5018157;28;20021;-64
2021/07/03 07:50:43;;;;;;;4.80;2.20;;;;;;;23.12;50.60;98487.63;5038434;28;20029;-63
2021/07/03 07:53:09;;;;;;;4.53;2.00;;;;;;;23.31;48.71;98475.91;5014828;28;20068;-63
2021/07/03 07:55:34;;;;;;;4.32;1.92;;;;;;;23.72;47.91;98503.31;5016894;28;20753;-63
2021/07/03 07:57:59;;;;;;;4.68;1.95;;;;;;;23.65;47.69;98505.28;5018240;28;20025;-63
2021/07/03 08:00:25;;;;;;;4.35;1.80;;;;;;;24.23;45.81;98516.88;5019817;28;20048;-63
2021/07/03 08:03:05;;;;;;;5.88;2.08;;;;;;;24.60;45.93;98518.38;5017791;28;20072;-64
2021/07/03 08:05:31;;;;;;;4.03;1.88;;;;;;;24.60;44.85;98511.22;5019929;28;20603;-63
2021/07/03 08:07:56;;;;;;;4.45;2.10;;;;;;;24.24;45.39;98520.31;5022285;28;20079;-63
2021/07/03 08:10:23;;;;;;;5.40;1.92;;;;;;;24.22;43.59;98514.44;5021096;28;20036;-63
2021/07/03 08:12:48;;;;;;;4.05;2.10;;;;;;;24.03;44.56;98511.16;5034546;28;20519;-63
2021/07/03 08:15:14;;;;;;;4.80;2.10;;;;;;;23.84;44.80;98507.81;5014676;28;20025;-64
2021/07/03 08:17:44;;;;;;;3.85;2.03;;;;;;;23.92;45.02;98507.47;5032850;28;20712;-64
2021/07/03 08:20:17;;;;;;;4.43;2.03;;;;;;;23.82;44.85;98475.41;5009260;28;20060;-63
2021/07/03 08:22:43;;;;;;;4.47;1.77;;;;;;;24.12;44.54;98504.44;5018128;28;20036;-64
2021/07/03 08:25:10;;;;;;;4.70;2.30;;;;;;;24.16;44.59;98505.56;5030499;28;20033;-64
2021/07/03 08:27:35;;;;;;;5.30;2.00;;;;;;;24.32;44.71;98512.78;5036252;28;20040;-63
2021/07/03 08:30:01;;;;;;;4.35;1.95;;;;;;;24.35;44.06;98514.16;5035592;28;20026;-65
2021/07/03 08:32:26;;;;;;;4.10;1.92;;;;;;;24.34;43.85;98507.25;5023453;28;20148;-64
2021/07/03 08:34:51;;;;;;;6.97;2.10;;;;;;;24.44;43.32;98502.13;5023772;28;20067;-63
2021/07/03 08:37:17;;;;;;;4.18;2.08;;;;;;;24.64;43.77;98500.91;5037616;28;20026;-64
2021/07/03 08:39:43;;;;;;;4.68;2.03;;;;;;;24.88;43.39;98507.72;5034634;28;20421;-63
2021/07/03 08:42:09;;;;;;;3.75;1.75;;;;;;;24.90;42.53;98504.84;5015657;28;20036;-63
2021/07/03 08:44:35;;;;;;;4.82;2.30;;;;;;;24.88;41.50;98498.91;5015172;28;20029;-62
2021/07/03 08:47:02;;;;;;;5.40;2.20;;;;;;;24.79;42.84;98495.03;5012560;28;20045;-64
2021/07/03 08:49:27;;;;;;;5.75;2.20;;;;;;;24.87;42.83;98489.34;5018222;28;20025;-64
2021/07/03 08:51:54;;;;;;;5.55;2.30;;;;;;;24.97;41.28;98497.50;5014030;28;20422;-63
2021/07/03 08:54:19;;;;;;;5.18;2.25;;;;;;;25.06;42.02;98482.75;5017483;28;20033;-63
2021/07/03 08:56:45;;;;;;;5.70;2.17;;;;;;;25.26;39.88;98503.56;5014479;28;20029;-65
2021/07/03 08:59:19;;;;;;;4.47;2.58;;;;;;;25.53;40.54;98497.56;5021296;28;20025;-64
2021/07/03 09:01:53;;;;;;;4.50;2.40;;;;;;;25.00;40.32;98458.97;5021714;28;20041;-64
2021/07/03 09:04:19;;;;;;;4.60;2.30;;;;;;;25.35;40.36;98490.66;5018798;28;20026;-63
2021/07/03 09:06:44;;;;;;;4.80;2.40;;;;;;;25.20;41.31;98490.41;5019148;28;20527;-63
2021/07/03 09:09:09;;;;;;;4.15;2.10;;;;;;;25.18;42.31;98487.97;5032751;28;20093;-63
2021/07/03 09:11:35;;;;;;;5.28;2.30;;;;;;;25.10;41.56;98491.06;5037955;28;20033;-63
2021/07/03 09:14:06;;;;;;;4.60;2.28;;;;;;;25.12;43.02;98484.44;5006047;28;20384;-63
2021/07/03 09:16:34;;;;;;;4.60;2.30;;;;;;;25.04;42.53;98492.81;5038956;28;20471;-62
2021/07/03 09:19:00;;;;;;;4.13;2.17;;;;;;;24.87;43.15;98486.69;5013043;28;20030;-63
2021/07/03 09:21:26;;;;;;;4.32;1.90;;;;;;;24.88;42.54;98465.19;5015832;28;20369;-63
2021/07/03 09:23:52;;;;;;;5.32;1.95;;;;;;;24.95;43.90;98467.66;5022666;28;20628;-64
2021/07/03 09:26:17;;;;;;;4.88;1.90;;;;;;;25.28;43.17;98474.03;5019825;28;20079;-63
2021/07/03 09:28:44;;;;;;;7.10;2.28;;;;;;;25.33;42.66;98482.09;5033710;28;20510;-63
2021/07/03 09:31:15;;;;;;;5.53;2.45;;;;;;;25.57;42.87;98466.72;5011085;28;20060;-63
2021/07/03 09:33:45;;;;;;;5.93;2.08;;;;;;;25.56;42.62;98421.75;5020055;28;20124;-64
2021/07/03 09:36:12;;;;;;;4.60;2.28;;;;;;;25.61;41.87;98456.41;5003951;28;20026;-64
2021/07/03 09:38:38;;;;;;;4.55;2.20;;;;;;;25.67;42.60;98456.22;5016358;28;20034;-64
2021/07/03 09:41:25;;;;;;;8.95;2.53;;;;;;;25.51;42.85;98452.56;5017836;28;20034;-64
2021/07/03 09:43:51;;;;;;;9.75;2.40;;;;;;;25.56;42.37;98453.69;5016972;28;20057;-63
2021/07/03 09:46:25;;;;;;;5.88;2.30;;;;;;;25.56;42.71;98449.16;5020402;28;20076;-64
2021/07/03 09:49:05;;;;;;;6.75;2.30;;;;;;;25.50;43.19;98431.50;5018246;28;20055;-64
2021/07/03 09:51:55;;;;;;;5.15;2.20;;;;;;;25.43;42.99;98449.53;5035679;28;20041;-64
2021/07/03 09:54:26;;;;;;;6.07;2.42;;;;;;;25.21;43.21;98434.28;5020250;28;20037;-64
2021/07/03 09:57:01;;;;;;;6.40;2.70;;;;;;;25.39;42.80;98416.44;5020308;28;20051;-64
2021/07/03 09:59:27;;;;;;;5.80;2.35;;;;;;;25.55;43.04;98452.06;5023509;28;20401;-64
2021/07/03 10:01:53;;;;;;;5.05;2.50;;;;;;;25.60;43.35;98439.63;5032442;28;20087;-63
2021/07/03 10:04:19;;;;;;;5.80;2.50;;;;;;;25.69;42.92;98440.00;5012392;28;20714;-63
2021/07/03 10:06:48;;;;;;;5.78;2.22;;;;;;;25.58;42.89;98440.94;5014155;28;20022;-64
2021/07/03 10:09:24;;;;;;;;;;;;;;;25.49;42.71;98445.88;5026366;28;20037;-64
2021/07/03 10:11:50;;;;;;;5.32;2.40;;;;;;;25.52;43.61;98442.72;5019664;28;20099;-63
2021/07/03 10:14:18;;;;;;;5.72;2.47;;;;;;;25.46;44.36;98444.53;5034881;28;20028;-64
2021/07/03 10:16:43;;;;;;;5.95;2.30;;;;;;;25.47;45.28;98438.13;5015461;28;20029;-63
2021/07/03 10:19:13;;;;;;;4.53;2.20;;;;;;;25.66;45.83;98435.97;5020378;28;20039;-63
2021/07/03 10:21:39;;;;;;;5.97;2.47;;;;;;;25.79;46.54;98431.34;5015983;28;20053;-64
2021/07/03 10:24:25;;;;;;;6.47;2.75;;;;;;;25.81;45.03;98429.22;5019954;28;20419;-63
2021/07/03 10:26:51;;;;;;;5.38;2.53;;;;;;;25.72;45.95;98428.88;5021453;28;20492;-63
2021/07/03 10:29:19;;;;;;;7.15;2.35;;;;;;;26.05;43.45;98432.47;5003185;28;20090;-63
2021/07/03 10:31:46;;;;;;;5.03;2.50;;;;;;;25.88;43.88;98432.50;5004269;28;20036;-63
2021/07/03 10:34:12;;;;;;;4.13;2.38;;;;;;;26.10;44.07;98411.19;5020066;28;20028;-63
2021/07/03 10:36:38;;;;;;;8.32;2.85;;;;;;;26.40;42.93;98418.69;5018989;28;20025;-64
2021/07/03 10:39:03;;;;;;;8.07;2.92;;;;;;;26.58;42.54;98412.19;5004135;28;20415;-63
2021/07/03 10:41:30;;;;;;;5.45;2.70;;;;;;;26.48;43.24;98409.44;5011998;28;20033;-63
2021/07/03 10:44:12;;;;;;;6.57;2.50;;;;;;;26.18;44.63;98409.97;5019261;28;20032;-64
2021/07/03 10:46:43;;;;;;;7.05;3.03;;;;;;;26.79;43.43;98402.50;5028414;28;20022;-63
2021/07/03 10:49:14;;;;;;;9.48;2.88;;;;;;;27.13;43.19;98388.88;5022611;28;20112;-64
2021/07/03 10:51:41;;;;;;;7.63;2.80;;;;;;;27.55;41.57;98395.25;5023696;28;20044;-63
2021/07/03 10:54:24;;;;;;;5.40;2.72;;;;;;;27.54;42.98;98398.97;5021730;28;20025;-64
2021/07/03 10:57:00;;;;;;;7.70;3.00;;;;;;;27.26;42.51;98392.97;5024215;28;20025;-62
2021/07/03 10:59:25;;;;;;;6.97;3.08;;;;;;;26.97;43.24;98392.50;5017841;28;20036;-63
2021/07/03 11:01:51;;;;;;;6.22;2.90;;;;;;;27.06;43.64;98387.50;5034254;28;20033;-63
2021/07/03 11:04:19;;;;;;;6.90;3.55;;;;;;;26.94;43.41;98380.50;5021726;28;20036;-63
2021/07/03 11:06:52;;;;;;;7.88;3.10;;;;;;;27.10;44.78;98392.03;5003143;28;20033;-62
2021/07/03 11:09:25;;;;;;;6.20;3.60;;;;;;;26.81;43.41;98357.72;5024046;28;20029;-63
2021/07/03 11:11:51;;;;;;;6.28;3.70;;;;;;;27.13;43.98;98391.53;5014786;28;20075;-63
2021/07/03 11:14:18;;;;;;;5.35;3.53;;;;;;;27.36;43.46;98389.53;5036881;28;20159;-63
2021/07/03 11:16:49;;;;;;;5.97;3.22;;;;;;;27.48;42.62;98390.13;5035166;28;20025;-63
2021/07/03 11:19:20;;;;;;;6.40;3.55;;;;;;;26.85;43.71;98382.84;5038725;28;20065;-63
2021/07/03 11:21:46;;;;;;;6.88;3.47;;;;;;;26.70;44.36;98377.38;5023723;28;20017;-63
2021/07/03 11:24:11;;;;;;;9.20;3.78;;;;;;;26.32;46.32;98383.69;5034318;28;20044;-62
2021/07/03 11:26:36;;;;;;;10.88;3.78;;;;;;;25.95;44.67;98341.78;5001894;28;20053;-63
2021/07/03 11:29:03;;;;;;;5.22;2.95;;;;;;;25.95;47.98;98379.88;5037466;28;20489;-64
2021/07/03 11:31:28;;;;;;;5.97;2.90;;;;;;;25.87;46.75;98361.66;5038229;28;20018;-64